Terminal Aerodrome Forecast
Issued by NWS Glasgow, MT

Current Version | Previous Version | Text Only | Print | Product List | Glossary On
Versions: 1 2 3 4 5 6 7 8 9 10 11 12 13
679
FTUS45 KGGW 300524
TAFGGW
TAF
KGGW 300524Z 3006/3106 VRB05KT P6SM BKN200
     FM301400 31005KT P6SM VCSH OVC040
     FM302100 28013KT P6SM -SHRA OVC050=

USA.gov is the U.S. government's official web portal to all federal, state and local government web resources and services.